Weather observations for the past three days for
Takotna, Tatalina LRRS Airport
Imperial (Metric)
Date Time (akdt) Wind (mph) Vis. (mi.) Weather Sky Cond. Temperature (ºF) Relative Humidity Wind Chill (°F) Heat Index (°F) Pressure Precipitation (in)
Air Dwpt 6 hour altimeter (in) sea level (mb) 1 hr 3 hr 6 hr
Max. Min.
31 07:55 Vrbl 5 10.00 Fair CLR 33.8 32 93% 30 29.87 1012.3
31 06:55 NE 9 9.00 Mostly Cloudy BKN009 33.8 32.5 95% 27 29.85 1011.7
31 05:55 Vrbl 7 10.00 Mostly Cloudy BKN014 33.8 33.8 100% 28 29.84 1011.4
31 04:55 NE 8 10.00 Light Showers Rain BKN010 35.6 33.8 93% 30 29.83 1011.0
31 03:55 Vrbl 3 10.00 Partly Cloudy SCT021 34.9 33.6 43 35.1 95% 29.81 1010.2 0.22
31 02:55 Vrbl 7 10.00 Mostly Cloudy BKN011 BKN031 35.6 35.6 100% 31 29.81 1010.1
31 01:55 Vrbl 6 10.00 Mostly Cloudy BKN016 37.4 35.6 93% 33 29.79 1009.6
31 00:55 Vrbl 5 10.00 Mostly Cloudy FEW021 SCT085 BKN130 36.1 35.2 97% 33 29.78 1009.2 0.06 0.22
30 23:55 NE 15 G 23 6.00 Rain BKN014 37.4 37.4 100% 29 29.78 1009.1 0.16
30 21:55 Vrbl 6 10.00 Mostly Cloudy BKN180 42.4 40.5 48 42.8 93% 39 29.77 1008.6 0.13
30 20:55 NE 1 10.00 Mostly Cloudy FEW025 SCT095 BKN110 44.6 44.6 100% 29.78 1008.9
30 19:55 Vrbl 3 10.00 Mostly Cloudy BKN100 BKN140 44.6 44.6 100% 29.79 1009.4
30 18:55 Vrbl 2 10.00 Mostly Cloudy BKN046 44.4 44.1 99% 29.81 1010.0 0.13
30 17:55 Vrbl 1 10.00 Light Showers Rain OVC049 44.6 42.8 93% 29.83 1010.7 0.04
30 16:55 Vrbl 5 10.00 Rain OVC032 44.6 42.8 93% 43 29.85 1011.3 0.09
30 15:55 NE 9 10.00 Light Showers Rain BKN017 47.8 46.6 48 46.4 95% 44 29.87 1011.7 0.04
30 14:55 NE 9 10.00 Light Rain BKN009 48.2 46.4 94% 45 29.88 1012.3 0.03
30 13:55 NE 12 9.00 Light Rain BKN008 48.2 46.4 94% 44 29.9 1013.1 0.01
30 12:55 NE 10 6.00 Light Showers Rain OVC005 46.8 46.2 98% 42 29.92 1013.7
30 11:55 NE 12 4.00 Light Showers Rain BKN005 46.4 46.4 100% 42 29.93 1014.1
30 10:55 NE 12 10.00 Overcast OVC010 46.4 44.6 93% 42 29.95 1014.6
30 09:55 NE 12 10.00 Overcast OVC010 46.8 44.4 49.8 46.4 92% 42 29.95 1014.7
30 08:55 NE 13 10.00 Mostly Cloudy BKN012 46.4 44.6 93% 41 29.96 1015.0
30 07:55 NE 12 6.00 Mostly Cloudy BKN013 48.2 44.6 87% 44 29.98 1015.6
30 05:55 NE 15 10.00 Mostly Cloudy BKN014 50 44.6 82% 45 30 1015.9
30 04:55 NE 16 10.00 Mostly Cloudy BKN012 BKN034 50 48.2 94% 45 30 1016.0
30 03:55 NE 8 10.00 Mostly Cloudy BKN010 47.5 46.2 48.6 46.4 95% 44 30.01 1016.5
30 02:55 Vrbl 6 10.00 Overcast OVC009 48.2 46.4 94% 46 30.02 1016.8
Date Time (akdt) Wind (mph) Vis. (mi.) Weather Sky Cond. Air Dwpt Max. Min. Relative Humidity Wind Chill (°F) Heat Index (°F) altimeter (in) sea level (mb) 1 hr 3 hr 6 hr
6 hour
Temperature (ºF) Pressure Precipitation (in)